createdAt,value
2022-08-02T00:00:24.258Z,54.00
2022-08-02T00:02:59.628Z,54.30
2022-08-02T00:05:33.714Z,54.40
2022-08-02T00:08:07.772Z,54.40
2022-08-02T00:10:41.686Z,54.40
2022-08-02T00:13:15.676Z,54.40
2022-08-02T00:15:49.646Z,54.50
2022-08-02T00:18:25.090Z,54.60
2022-08-02T00:20:59.087Z,54.70
2022-08-02T00:23:32.997Z,54.70
2022-08-02T00:26:26.987Z,54.90
2022-08-02T00:29:00.944Z,55.10
2022-08-02T00:31:35.289Z,55.30
2022-08-02T00:34:29.961Z,55.50
2022-08-02T00:37:12.390Z,55.70
2022-08-02T00:39:46.865Z,55.80
2022-08-02T00:42:20.802Z,55.90
2022-08-02T00:44:54.682Z,56.00
2022-08-02T00:47:28.816Z,56.20
2022-08-02T00:50:04.383Z,56.30
2022-08-02T00:52:38.395Z,56.40
2022-08-02T00:55:12.364Z,56.40
2022-08-02T00:57:51.510Z,56.50
2022-08-02T01:00:25.784Z,56.60
2022-08-02T01:03:03.927Z,56.60
2022-08-02T01:05:55.880Z,56.70
2022-08-02T01:08:36.576Z,56.80
2022-08-02T01:11:10.530Z,56.80
2022-08-02T01:13:44.518Z,56.90
2022-08-02T01:16:24.762Z,57.00
2022-08-02T01:19:05.252Z,57.10
2022-08-02T01:22:07.553Z,57.10
2022-08-02T01:25:08.101Z,57.20
2022-08-02T01:27:56.312Z,57.40
2022-08-02T01:30:33.486Z,57.50
2022-08-02T01:33:09.209Z,57.50
2022-08-02T01:35:47.205Z,57.50
2022-08-02T01:38:29.375Z,57.60
2022-08-02T01:41:05.189Z,57.70
2022-08-02T01:43:40.907Z,57.80
2022-08-02T01:46:18.182Z,57.90
2022-08-02T01:48:54.468Z,57.90
2022-08-02T01:51:47.493Z,57.90
2022-08-02T01:54:25.430Z,58.00
2022-08-02T01:57:00.890Z,58.10
2022-08-02T01:59:36.738Z,58.00
2022-08-02T02:02:14.091Z,58.20
2022-08-02T02:04:50.465Z,58.20
2022-08-02T02:07:25.324Z,58.20
2022-08-02T02:10:01.679Z,58.30
2022-08-02T02:12:38.272Z,58.30
2022-08-02T02:15:14.238Z,58.30
2022-08-02T02:18:12.893Z,58.40
2022-08-02T02:20:47.702Z,58.50
2022-08-02T02:23:23.769Z,58.40
2022-08-02T02:26:01.209Z,58.50
2022-08-02T02:28:40.545Z,58.50
2022-08-02T02:31:19.053Z,58.60
2022-08-02T02:34:00.104Z,58.60
2022-08-02T02:36:36.158Z,58.60
2022-08-02T02:39:13.966Z,58.60
2022-08-02T02:41:49.199Z,58.60
2022-08-02T02:44:25.031Z,58.60
2022-08-02T02:46:59.627Z,58.60
2022-08-02T02:49:37.847Z,58.70
2022-08-02T02:52:14.465Z,58.70
2022-08-02T02:54:50.638Z,58.70
2022-08-02T02:57:25.466Z,58.80
2022-08-02T02:59:59.674Z,58.80
2022-08-02T03:02:35.153Z,58.80
2022-08-02T03:05:13.352Z,58.90
2022-08-02T03:07:47.342Z,58.90
2022-08-02T03:10:21.589Z,58.90
2022-08-02T03:12:56.370Z,59.00
2022-08-02T03:15:32.020Z,59.00
2022-08-02T03:18:07.967Z,59.00
2022-08-02T03:20:43.416Z,59.00
2022-08-02T03:23:17.385Z,59.10
2022-08-02T03:25:51.378Z,59.10
2022-08-02T03:28:25.509Z,59.10
2022-08-02T03:30:59.585Z,59.10
2022-08-02T03:33:34.533Z,59.10
2022-08-02T03:36:13.698Z,59.20
2022-08-02T03:38:48.634Z,59.40
2022-08-02T03:41:24.650Z,59.30
2022-08-02T03:43:59.576Z,59.40
2022-08-02T03:46:35.229Z,59.50
2022-08-02T03:49:09.725Z,59.40
2022-08-02T03:51:46.101Z,59.40
2022-08-02T03:54:20.450Z,59.60
2022-08-02T03:56:54.622Z,59.60
2022-08-02T03:59:28.555Z,60.10
2022-08-02T04:02:06.624Z,59.60
2022-08-02T04:04:40.859Z,59.70
2022-08-02T04:08:03.480Z,59.70
2022-08-02T04:10:11.132Z,59.70
2022-08-02T04:12:45.231Z,59.70
2022-08-02T04:15:19.665Z,60.30
2022-08-02T04:17:57.926Z,59.80
2022-08-02T04:20:36.231Z,59.80
2022-08-02T04:23:15.897Z,59.80
2022-08-02T04:25:51.405Z,59.80
2022-08-02T04:28:27.716Z,59.80
2022-08-02T04:31:03.970Z,59.80
2022-08-02T04:33:39.362Z,59.80
2022-08-02T04:36:15.094Z,59.80
2022-08-02T04:39:06.711Z,59.80
2022-08-02T04:41:43.979Z,59.80
2022-08-02T04:44:18.507Z,59.90
2022-08-02T04:46:54.774Z,59.90
2022-08-02T04:49:28.766Z,59.90
2022-08-02T04:52:02.917Z,59.90
2022-08-02T04:54:38.543Z,59.90
2022-08-02T04:57:26.161Z,59.90
2022-08-02T05:00:00.097Z,60.00
2022-08-02T05:02:33.997Z,60.00
2022-08-02T05:05:10.340Z,60.00
2022-08-02T05:07:44.377Z,60.00
2022-08-02T05:10:20.049Z,60.10
2022-08-02T05:12:54.129Z,60.50
2022-08-02T05:15:31.636Z,61.40
2022-08-02T05:18:07.587Z,61.90
2022-08-02T05:20:41.496Z,62.30
2022-08-02T05:23:15.508Z,62.40
2022-08-02T05:25:50.913Z,62.90
2022-08-02T05:28:25.324Z,62.20
2022-08-02T05:30:59.238Z,62.20
2022-08-02T05:33:33.418Z,62.20
2022-08-02T05:36:10.092Z,62.20
2022-08-02T05:38:49.715Z,62.90
2022-08-02T05:41:25.494Z,62.10
2022-08-02T05:43:59.401Z,62.20
2022-08-02T05:46:33.390Z,62.50
2022-08-02T05:49:07.446Z,62.60
2022-08-02T05:51:44.711Z,62.60
2022-08-02T05:54:22.133Z,62.60
2022-08-02T05:57:03.109Z,62.70
2022-08-02T05:59:49.730Z,62.70
2022-08-02T06:02:31.271Z,62.70
2022-08-02T06:05:11.755Z,62.70
2022-08-02T06:07:47.044Z,62.70
2022-08-02T06:10:23.147Z,62.60
2022-08-02T06:13:08.553Z,62.50
2022-08-02T06:15:53.262Z,62.60
2022-08-02T06:18:29.406Z,62.60
2022-08-02T06:22:35.790Z,62.60
2022-08-02T06:24:00.520Z,62.60
2022-08-02T06:26:35.577Z,62.60
2022-08-02T06:29:13.522Z,62.80
2022-08-02T06:31:47.567Z,62.90
2022-08-02T06:34:21.503Z,62.90
2022-08-02T06:37:04.860Z,62.90
2022-08-02T06:39:46.644Z,62.90
2022-08-02T06:42:27.778Z,62.90
2022-08-02T06:45:05.013Z,62.80
2022-08-02T06:47:38.948Z,62.80
2022-08-02T06:50:13.355Z,62.70
2022-08-02T06:52:47.293Z,62.70
2022-08-02T06:55:21.401Z,62.70
2022-08-02T06:57:55.312Z,62.70
2022-08-02T07:00:30.981Z,62.70
2022-08-02T07:03:05.684Z,62.60
2022-08-02T07:05:39.744Z,62.60
2022-08-02T07:08:13.626Z,62.50
2022-08-02T07:10:47.767Z,62.40
2022-08-02T07:13:21.842Z,62.40
2022-08-02T07:15:58.160Z,62.40
2022-08-02T07:18:32.217Z,62.20
2022-08-02T07:21:06.397Z,62.10
2022-08-02T07:23:42.879Z,62.20
2022-08-02T07:26:16.823Z,62.20
2022-08-02T07:28:50.719Z,62.00
2022-08-02T07:31:26.372Z,62.00
2022-08-02T07:34:00.359Z,62.00
2022-08-02T07:36:34.581Z,62.10
2022-08-02T07:39:08.947Z,61.80
2022-08-02T07:41:45.299Z,61.70
2022-08-02T07:44:19.709Z,61.60
2022-08-02T07:46:55.005Z,61.70
2022-08-02T07:49:29.170Z,62.20
2022-08-02T07:52:03.284Z,62.80
2022-08-02T07:54:37.220Z,63.10
2022-08-02T07:57:11.268Z,63.30
2022-08-02T07:59:46.690Z,63.60
2022-08-02T08:02:23.890Z,63.30
2022-08-02T08:04:58.402Z,63.30
2022-08-02T08:07:32.318Z,63.50
2022-08-02T08:10:07.736Z,63.50
2022-08-02T08:12:41.683Z,63.50
2022-08-02T08:15:15.676Z,63.30
2022-08-02T08:17:51.129Z,63.50
2022-08-02T08:20:25.240Z,63.90
2022-08-02T08:22:59.210Z,64.20
2022-08-02T08:25:39.675Z,64.40
2022-08-02T08:28:15.409Z,64.20
2022-08-02T08:30:49.403Z,64.10
2022-08-02T08:33:26.574Z,64.20
2022-08-02T08:36:02.598Z,63.80
2022-08-02T08:38:36.932Z,63.10
2022-08-02T08:41:10.977Z,62.50
2022-08-02T08:43:44.900Z,62.40
2022-08-02T08:46:27.968Z,62.30
2022-08-02T08:49:07.776Z,61.80
2022-08-02T08:51:44.974Z,61.70
2022-08-02T08:54:21.031Z,61.30
2022-08-02T08:56:56.564Z,61.20
2022-08-02T08:59:30.585Z,61.10
2022-08-02T09:02:20.392Z,61.00
2022-08-02T09:04:57.269Z,60.90
2022-08-02T09:07:31.538Z,60.90
2022-08-02T09:10:36.841Z,60.90
2022-08-02T09:13:37.926Z,60.90
2022-08-02T09:16:14.095Z,61.20
2022-08-02T09:18:48.904Z,61.30
2022-08-02T09:21:24.530Z,61.40
2022-08-02T09:23:58.913Z,61.90
2022-08-02T09:26:33.021Z,62.60
2022-08-02T09:29:08.252Z,63.00
2022-08-02T09:31:49.493Z,62.80
2022-08-02T09:34:24.132Z,62.70
2022-08-02T09:37:01.955Z,62.20
2022-08-02T09:39:46.687Z,61.90
2022-08-02T09:42:22.385Z,61.70
2022-08-02T09:45:05.952Z,61.20
2022-08-02T09:47:50.150Z,60.80
2022-08-02T09:50:24.192Z,60.50
2022-08-02T09:53:00.291Z,60.10
2022-08-02T09:55:34.366Z,59.60
2022-08-02T09:58:20.122Z,59.40
2022-08-02T10:00:55.864Z,58.90
2022-08-02T10:03:34.982Z,58.90
2022-08-02T10:06:09.244Z,59.00
2022-08-02T10:08:44.684Z,58.00
2022-08-02T10:11:18.962Z,58.10
2022-08-02T10:13:53.557Z,58.00
2022-08-02T10:16:27.507Z,57.70
2022-08-02T10:19:04.569Z,57.70
2022-08-02T10:21:46.746Z,57.60
2022-08-02T10:24:25.712Z,57.30
2022-08-02T10:27:01.298Z,57.00
2022-08-02T10:29:54.039Z,56.80
2022-08-02T10:32:34.966Z,56.70
2022-08-02T10:35:20.154Z,56.90
2022-08-02T10:38:03.919Z,57.30
2022-08-02T10:40:51.174Z,57.60
2022-08-02T10:43:52.182Z,58.00
2022-08-02T10:46:32.938Z,57.90
2022-08-02T10:49:37.347Z,58.20
2022-08-02T10:52:09.736Z,58.40
2022-08-02T10:54:45.840Z,57.90
2022-08-02T10:57:26.649Z,57.20
2022-08-02T11:00:04.055Z,57.20
2022-08-02T11:02:43.732Z,57.00
2022-08-02T11:05:19.407Z,56.50
2022-08-02T11:07:53.468Z,56.70
2022-08-02T11:10:45.624Z,56.60
2022-08-02T11:13:21.314Z,56.30
2022-08-02T11:15:59.295Z,56.00
2022-08-02T11:19:06.834Z,55.70
2022-08-02T11:21:41.020Z,55.30
2022-08-02T11:24:29.749Z,55.00
2022-08-02T11:27:06.477Z,54.60
2022-08-02T11:29:44.106Z,54.40
2022-08-02T11:32:21.312Z,54.00
2022-08-02T11:34:56.382Z,53.80
2022-08-02T11:37:30.699Z,53.70
2022-08-02T11:40:06.360Z,53.40
2022-08-02T11:42:44.588Z,53.30
2022-08-02T11:45:29.395Z,53.10
2022-08-02T11:48:04.010Z,53.00
2022-08-02T11:50:38.215Z,53.00
2022-08-02T11:53:16.851Z,52.90
2022-08-02T11:55:50.995Z,52.60
2022-08-02T11:58:24.960Z,52.50
2022-08-02T12:01:00.560Z,52.80
2022-08-02T12:03:39.203Z,52.80
2022-08-02T12:06:16.620Z,52.60
2022-08-02T12:08:54.359Z,52.90
2022-08-02T12:11:28.936Z,53.20
2022-08-02T12:14:13.356Z,53.40
2022-08-02T12:17:07.468Z,53.60
2022-08-02T12:19:42.907Z,53.40
2022-08-02T12:22:19.392Z,52.90
2022-08-02T12:24:59.473Z,52.40
2022-08-02T12:27:38.395Z,52.30
2022-08-02T12:30:15.047Z,52.30
2022-08-02T12:32:51.047Z,52.80
2022-08-02T12:35:31.972Z,53.00
2022-08-02T12:38:12.142Z,53.10
2022-08-02T12:40:47.295Z,53.00
2022-08-02T12:43:23.631Z,53.00
2022-08-02T12:45:58.691Z,53.00
2022-08-02T12:48:38.300Z,52.80
2022-08-02T12:51:21.600Z,52.70
2022-08-02T12:53:59.905Z,52.50
2022-08-02T12:56:38.558Z,52.50
2022-08-02T12:59:12.786Z,52.70
2022-08-02T13:01:48.626Z,52.40
2022-08-02T13:04:24.015Z,52.30
2022-08-02T13:06:59.313Z,52.30
2022-08-02T13:09:38.463Z,52.20
2022-08-02T13:12:12.973Z,52.00
2022-08-02T13:14:47.313Z,51.50
2022-08-02T13:17:21.264Z,51.50
2022-08-02T13:19:56.753Z,51.60
2022-08-02T13:22:31.568Z,51.20
2022-08-02T13:25:07.712Z,51.20
2022-08-02T13:27:41.680Z,51.10
2022-08-02T13:30:15.823Z,51.20
2022-08-02T13:32:49.750Z,50.70
2022-08-02T13:35:26.267Z,50.70
2022-08-02T13:38:00.246Z,50.60
2022-08-02T13:40:48.974Z,50.50
2022-08-02T13:43:53.644Z,50.40
2022-08-02T13:46:29.274Z,50.80
2022-08-02T13:49:03.793Z,50.70
2022-08-02T13:51:39.185Z,50.80
2022-08-02T13:54:13.606Z,50.80
2022-08-02T13:56:47.910Z,50.90
2022-08-02T13:59:56.788Z,50.80
2022-08-02T14:02:17.421Z,50.60
2022-08-02T14:04:52.823Z,50.60
2022-08-02T14:07:28.300Z,50.40
2022-08-02T14:10:02.372Z,50.00
2022-08-02T14:12:36.742Z,48.80
2022-08-02T14:15:12.006Z,48.50
2022-08-02T14:17:46.387Z,48.60
2022-08-02T14:20:29.851Z,48.70
2022-08-02T14:23:06.934Z,48.80
2022-08-02T14:25:41.442Z,48.90
2022-08-02T14:28:15.667Z,49.30
2022-08-02T14:30:49.999Z,49.20
2022-08-02T14:33:24.674Z,49.20
2022-08-02T14:35:58.856Z,49.20
2022-08-02T14:38:35.362Z,49.10
2022-08-02T14:41:09.580Z,48.90
2022-08-02T14:44:01.294Z,48.90
2022-08-02T14:46:37.499Z,48.80
2022-08-02T14:49:14.235Z,48.80
2022-08-02T14:51:59.302Z,48.60
2022-08-02T14:54:35.019Z,48.40
2022-08-02T14:57:09.207Z,48.40
2022-08-02T14:59:43.345Z,48.80
2022-08-02T15:02:17.642Z,48.20
2022-08-02T15:04:51.721Z,48.00
2022-08-02T15:07:49.131Z,48.00
2022-08-02T15:10:25.366Z,48.00
2022-08-02T15:12:59.439Z,47.80
2022-08-02T15:15:40.468Z,47.70
2022-08-02T15:18:17.543Z,47.60
2022-08-02T15:20:57.401Z,47.60
2022-08-02T15:23:37.162Z,47.40
2022-08-02T15:26:14.084Z,47.30
2022-08-02T15:28:48.066Z,47.20
2022-08-02T15:31:33.342Z,47.00
2022-08-02T15:34:07.671Z,46.80
2022-08-02T15:36:41.637Z,46.70
2022-08-02T15:39:15.626Z,46.60
2022-08-02T15:41:51.072Z,46.40
2022-08-02T15:44:25.106Z,46.40
2022-08-02T15:46:59.694Z,46.40
2022-08-02T15:49:36.082Z,46.30
2022-08-02T15:52:12.263Z,46.30
2022-08-02T15:54:46.401Z,46.20
2022-08-02T15:57:21.801Z,46.10
2022-08-02T15:59:55.876Z,46.10
2022-08-02T16:02:30.046Z,46.00
2022-08-02T16:05:04.028Z,47.20
2022-08-02T16:07:48.055Z,48.00
2022-08-02T16:10:23.281Z,48.00
2022-08-02T16:13:18.682Z,48.10
2022-08-02T16:15:52.656Z,47.70
2022-08-02T16:18:26.756Z,48.00
2022-08-02T16:21:00.968Z,47.60
2022-08-02T16:24:01.478Z,47.70
2022-08-02T16:26:29.621Z,47.50
2022-08-02T16:29:06.157Z,47.70
2022-08-02T16:31:42.740Z,47.40
2022-08-02T16:34:17.269Z,47.70
2022-08-02T16:36:51.584Z,47.70
2022-08-02T16:39:25.566Z,47.70
2022-08-02T16:41:59.529Z,47.90
2022-08-02T16:44:36.731Z,48.30
2022-08-02T16:47:13.774Z,48.60
2022-08-02T16:50:05.152Z,48.90
2022-08-02T16:52:43.438Z,49.20
2022-08-02T16:55:18.505Z,49.60
2022-08-02T17:00:48.602Z,50.90
2022-08-02T17:03:22.747Z,50.50
2022-08-02T17:05:57.301Z,50.60
2022-08-02T17:08:32.392Z,50.50
2022-08-02T17:11:06.597Z,50.50
2022-08-02T17:13:40.797Z,50.50
2022-08-02T17:16:20.713Z,50.70
2022-08-02T17:19:00.105Z,50.80
2022-08-02T17:21:34.323Z,50.80
2022-08-02T17:24:08.832Z,51.10
2022-08-02T17:26:42.944Z,51.40
2022-08-02T17:29:18.033Z,51.80
2022-08-02T17:32:05.258Z,52.10
2022-08-02T17:34:49.105Z,53.10
2022-08-02T17:37:37.497Z,53.80
2022-08-02T17:40:15.855Z,54.60
2022-08-02T17:42:53.917Z,56.00
2022-08-02T17:45:59.825Z,56.80
2022-08-02T17:48:23.218Z,57.20
2022-08-02T17:51:10.993Z,57.50
2022-08-02T17:53:46.162Z,58.00
2022-08-02T17:56:23.784Z,58.20
2022-08-02T17:58:57.984Z,58.40
2022-08-02T18:01:32.263Z,58.70
2022-08-02T18:04:07.835Z,58.30
2022-08-02T18:06:46.453Z,57.40
2022-08-02T18:09:21.475Z,57.00
2022-08-02T18:11:55.565Z,56.80
2022-08-02T18:14:30.493Z,56.60
2022-08-02T18:17:05.552Z,56.60
2022-08-02T18:19:42.939Z,56.60
2022-08-02T18:22:31.481Z,56.60
2022-08-02T18:25:09.372Z,56.60
2022-08-02T18:27:43.662Z,57.30
2022-08-02T18:30:20.844Z,58.50
2022-08-02T18:33:55.897Z,59.40
2022-08-02T18:35:58.918Z,60.10
2022-08-02T18:38:33.016Z,60.70
2022-08-02T18:41:12.567Z,61.10
2022-08-02T18:43:47.053Z,61.00
2022-08-02T18:46:21.493Z,61.00
2022-08-02T18:48:55.711Z,60.40
2022-08-02T18:51:36.672Z,59.10
2022-08-02T18:54:10.945Z,57.50
2022-08-02T18:56:47.346Z,56.10
2022-08-02T18:59:21.873Z,55.40
2022-08-02T19:01:57.882Z,54.70
2022-08-02T19:04:33.103Z,54.60
2022-08-02T19:07:08.513Z,54.70
2022-08-02T19:09:42.582Z,54.60
2022-08-02T19:12:26.017Z,54.30
2022-08-02T19:15:02.532Z,54.00
2022-08-02T19:17:54.850Z,53.80
2022-08-02T19:20:31.324Z,53.30
2022-08-02T19:23:09.563Z,53.00
2022-08-02T19:25:50.084Z,52.90
2022-08-02T19:28:26.141Z,52.90
2022-08-02T19:31:00.756Z,53.00
2022-08-02T19:34:06.304Z,53.10
2022-08-02T19:36:28.952Z,53.20
2022-08-02T19:39:04.578Z,53.20
2022-08-02T19:41:44.121Z,53.30
2022-08-02T19:44:29.297Z,53.40
2022-08-02T19:47:03.692Z,53.50
2022-08-02T19:49:39.495Z,53.70
2022-08-02T19:52:20.888Z,53.90
2022-08-02T19:55:01.903Z,54.00
2022-08-02T19:57:51.544Z,54.10
2022-08-02T20:00:28.093Z,54.30
2022-08-02T20:03:02.187Z,54.50
2022-08-02T20:05:36.394Z,54.50
2022-08-02T20:08:10.463Z,54.70
2022-08-02T20:11:05.976Z,54.70
2022-08-02T20:13:48.865Z,54.90
2022-08-02T20:16:27.920Z,55.00
2022-08-02T20:19:02.590Z,55.10
2022-08-02T20:21:42.010Z,55.20
2022-08-02T20:24:19.127Z,55.20
2022-08-02T20:26:54.568Z,55.40
2022-08-02T20:29:43.328Z,55.50
2022-08-02T20:32:23.595Z,55.60
2022-08-02T20:34:57.727Z,55.60
2022-08-02T20:37:59.539Z,55.80
2022-08-02T20:40:25.938Z,55.60
2022-08-02T20:43:01.644Z,55.70
2022-08-02T20:45:36.504Z,55.30
2022-08-02T20:48:10.394Z,55.40
2022-08-02T20:50:54.219Z,55.20
2022-08-02T20:53:29.735Z,54.80
2022-08-02T20:56:04.191Z,54.50
2022-08-02T20:58:39.597Z,54.30
2022-08-02T21:01:13.892Z,54.00
2022-08-02T21:03:58.389Z,53.90
2022-08-02T21:06:32.751Z,53.60
2022-08-02T21:09:06.775Z,53.40
2022-08-02T21:11:40.836Z,53.10
2022-08-02T21:14:25.992Z,52.90
2022-08-02T21:17:01.334Z,52.70
2022-08-02T21:19:44.341Z,52.70
2022-08-02T21:22:18.756Z,52.40
2022-08-02T21:25:01.736Z,52.10
2022-08-02T21:27:52.868Z,50.70
2022-08-02T21:30:29.473Z,50.10
2022-08-02T21:33:03.638Z,49.60
2022-08-02T21:35:38.006Z,49.40
2022-08-02T21:38:35.142Z,49.10
2022-08-02T21:41:11.974Z,49.30
2022-08-02T21:43:46.484Z,49.30
2022-08-02T21:46:21.901Z,49.00
2022-08-02T21:48:56.423Z,49.10
2022-08-02T21:51:34.273Z,49.00
2022-08-02T21:54:18.256Z,48.80
2022-08-02T21:56:54.390Z,49.00
2022-08-02T21:59:28.278Z,48.70
2022-08-02T22:02:03.523Z,48.70
2022-08-02T22:04:37.746Z,48.90
2022-08-02T22:07:11.964Z,48.80
2022-08-02T22:09:47.713Z,48.50
2022-08-02T22:12:26.518Z,48.80
2022-08-02T22:15:01.228Z,48.80
2022-08-02T22:17:53.345Z,49.10
2022-08-02T22:20:30.452Z,48.70
2022-08-02T22:23:05.004Z,48.50
2022-08-02T22:25:47.201Z,49.10
2022-08-02T22:28:38.404Z,48.60
2022-08-02T22:31:15.266Z,48.30
2022-08-02T22:34:26.542Z,48.10
2022-08-02T22:37:01.956Z,48.40
2022-08-02T22:40:02.903Z,48.40
2022-08-02T22:42:33.824Z,48.40
2022-08-02T22:45:09.404Z,48.20
2022-08-02T22:47:50.679Z,48.40
2022-08-02T22:50:27.703Z,48.00
2022-08-02T22:53:03.086Z,48.40
2022-08-02T22:55:41.326Z,48.20
2022-08-02T22:58:15.908Z,48.20
2022-08-02T22:58:35.805Z,49.90
2022-08-02T23:00:53.582Z,48.80
2022-08-02T23:03:27.550Z,48.70
2022-08-02T23:06:02.874Z,48.40
2022-08-02T23:08:37.441Z,48.30
2022-08-02T23:11:11.354Z,48.40
2022-08-02T23:13:45.376Z,48.70
2022-08-02T23:16:40.173Z,48.20
2022-08-02T23:19:31.472Z,50.20
2022-08-02T23:22:06.764Z,51.00
2022-08-02T23:24:40.667Z,52.10
2022-08-02T23:27:14.237Z,52.60
2022-08-02T23:29:49.167Z,52.80
2022-08-02T23:32:26.011Z,52.80
2022-08-02T23:35:00.296Z,53.00
2022-08-02T23:37:59.491Z,53.20
2022-08-02T23:40:38.906Z,53.30
2022-08-02T23:43:15.462Z,53.40
2022-08-02T23:45:49.574Z,53.50
2022-08-02T23:48:23.489Z,53.60
2022-08-02T23:50:57.383Z,53.70
2022-08-02T23:53:32.453Z,53.80
2022-08-02T23:56:07.045Z,54.00
2022-08-02T23:58:41.158Z,54.00
